Terminal Aerodrome Forecast
Issued by NWS Raleigh/Durham, NC

Home | Current Version | Previous Version | Text Only | Print | Product List | Glossary On
Versions: 1 2 3 4 5 6 7 8 9 10 11 12 13 14 15
000
FTUS42 KRAH 221736
TAFRDU
TAF
KRDU 221736Z 2218/2318 17005KT P6SM SCT020 OVC050
     FM230000 17002KT P6SM OVC100
      TEMPO 2309/2312 6SM BR
     FM231400 18005KT P6SM BKN250=

USA.gov is the U.S. government's official web portal to all federal, state and local government web resources and services.